createdAt,value
2022-11-13T00:01:49.314Z,95.22
2022-11-13T00:04:41.401Z,84.43
2022-11-13T00:07:33.331Z,82.35
2022-11-13T00:10:25.195Z,85.50
2022-11-13T00:13:17.108Z,79.07
2022-11-13T00:16:12.678Z,72.70
2022-11-13T00:19:05.887Z,70.80
2022-11-13T00:21:59.755Z,80.93
2022-11-13T00:24:51.882Z,79.43
2022-11-13T00:27:44.108Z,90.43
2022-11-13T00:30:36.301Z,79.95
2022-11-13T00:33:55.066Z,82.30
2022-11-13T00:36:42.002Z,87.78
2022-11-13T00:39:34.033Z,84.07
2022-11-13T00:42:25.921Z,79.68
2022-11-13T00:45:18.143Z,82.75
2022-11-13T00:48:10.089Z,86.07
2022-11-13T00:51:02.235Z,82.45
2022-11-13T00:53:55.799Z,80.30
2022-11-13T00:56:47.623Z,83.95
2022-11-13T00:59:39.606Z,86.60
2022-11-13T01:02:31.697Z,85.05
2022-11-13T01:05:23.649Z,87.50
2022-11-13T01:08:16.651Z,83.63
2022-11-13T01:11:16.037Z,87.15
2022-11-13T01:14:08.332Z,79.93
2022-11-13T01:17:00.594Z,85.20
2022-11-13T01:19:52.512Z,83.03
2022-11-13T01:22:44.664Z,88.85
2022-11-13T01:25:36.850Z,89.25
2022-11-13T01:28:30.881Z,95.05
2022-11-13T01:31:27.797Z,87.65
2022-11-13T01:34:19.870Z,86.80
2022-11-13T01:37:11.852Z,95.68
2022-11-13T01:40:03.757Z,101.85
2022-11-13T01:42:55.731Z,82.95
2022-11-13T01:46:08.449Z,90.15
2022-11-13T01:49:05.601Z,86.47
2022-11-13T01:52:01.159Z,90.65
2022-11-13T01:54:56.768Z,94.50
2022-11-13T01:57:48.849Z,92.35
2022-11-13T02:00:40.907Z,90.65
2022-11-13T02:03:34.589Z,90.63
2022-11-13T02:06:30.046Z,88.97
2022-11-13T02:09:24.042Z,89.32
2022-11-13T02:15:10.551Z,80.20
2022-11-13T02:18:04.259Z,80.72
2022-11-13T02:21:05.866Z,93.82
2022-11-13T02:24:06.342Z,88.05
2022-11-13T02:27:04.293Z,84.43
2022-11-13T02:29:56.361Z,80.25
2022-11-13T02:32:50.023Z,85.57
2022-11-13T02:35:42.405Z,86.57
2022-11-13T02:38:36.603Z,84.20
2022-11-13T02:44:21.839Z,83.68
2022-11-13T02:47:13.854Z,75.70
2022-11-13T02:50:07.892Z,85.38
2022-11-13T02:53:00.167Z,83.57
2022-11-13T02:55:52.397Z,72.93
2022-11-13T02:58:44.743Z,75.47
2022-11-13T03:01:38.444Z,79.40
2022-11-13T03:04:50.243Z,88.00
2022-11-13T03:07:43.207Z,82.78
2022-11-13T03:10:35.289Z,79.85
2022-11-13T03:13:27.433Z,76.95
2022-11-13T03:16:19.943Z,80.75
2022-11-13T03:19:13.402Z,77.20
2022-11-13T03:22:05.436Z,81.73
2022-11-13T03:24:57.685Z,80.65
2022-11-13T03:27:49.912Z,77.95
2022-11-13T03:30:41.985Z,86.13
2022-11-13T03:33:34.542Z,77.93
2022-11-13T03:36:28.468Z,77.90
2022-11-13T03:39:20.433Z,84.35
2022-11-13T03:42:12.584Z,80.57
2022-11-13T03:45:04.971Z,82.85
2022-11-13T03:47:56.758Z,82.15
2022-11-13T03:50:50.614Z,81.35
2022-11-13T03:53:44.139Z,74.47
2022-11-13T03:56:36.050Z,83.75
2022-11-13T03:59:28.044Z,81.72
2022-11-13T04:02:20.501Z,80.95
2022-11-13T04:05:12.929Z,77.72
2022-11-13T04:08:04.688Z,82.60
2022-11-13T04:11:07.303Z,86.85
2022-11-13T04:13:59.611Z,86.53
2022-11-13T04:16:51.659Z,79.15
2022-11-13T04:19:43.702Z,79.43
2022-11-13T04:22:35.539Z,83.30
2022-11-13T04:25:28.166Z,82.50
2022-11-13T04:28:21.773Z,83.60
2022-11-13T04:31:13.958Z,81.68
2022-11-13T04:34:06.251Z,86.38
2022-11-13T04:36:58.449Z,80.88
2022-11-13T04:39:50.615Z,82.53
2022-11-13T04:42:51.047Z,88.35
2022-11-13T04:45:44.321Z,87.68
2022-11-13T04:48:36.473Z,88.85
2022-11-13T04:51:28.696Z,79.47
2022-11-13T04:54:25.756Z,89.63
2022-11-13T04:57:20.534Z,86.30
2022-11-13T05:00:14.036Z,88.00
2022-11-13T05:03:07.416Z,89.82
2022-11-13T05:06:04.473Z,93.68
2022-11-13T05:08:56.802Z,91.57
2022-11-13T05:11:48.784Z,99.82
2022-11-13T05:14:42.080Z,102.60
2022-11-13T05:17:34.402Z,98.97
2022-11-13T05:20:27.820Z,94.15
2022-11-13T05:23:20.006Z,97.03
2022-11-13T05:26:13.947Z,83.70
2022-11-13T05:29:06.406Z,95.10
2022-11-13T05:31:58.674Z,82.85
2022-11-13T05:34:50.979Z,81.38
2022-11-13T05:37:44.303Z,83.78
2022-11-13T05:40:36.305Z,79.03
2022-11-13T05:43:28.201Z,77.35
2022-11-13T05:46:21.892Z,80.88
2022-11-13T05:49:13.935Z,78.67
2022-11-13T05:52:06.181Z,78.50
2022-11-13T05:54:59.538Z,77.13
2022-11-13T05:57:51.365Z,76.38
2022-11-13T06:00:43.428Z,73.45
2022-11-13T06:03:35.668Z,80.85
2022-11-13T06:06:29.189Z,80.28
2022-11-13T06:09:21.615Z,74.25
2022-11-13T06:12:15.363Z,73.72
2022-11-13T06:15:08.350Z,75.57
2022-11-13T06:18:00.811Z,73.05
2022-11-13T06:20:53.263Z,76.60
2022-11-13T06:23:45.473Z,72.32
2022-11-13T06:26:41.651Z,71.25
2022-11-13T06:29:35.007Z,68.50
2022-11-13T06:32:27.226Z,76.30
2022-11-13T06:35:19.441Z,70.78
2022-11-13T06:38:11.393Z,65.97
2022-11-13T06:41:04.610Z,63.47
2022-11-13T06:44:02.072Z,57.30
2022-11-13T06:46:56.263Z,57.20
2022-11-13T06:49:48.401Z,53.78
2022-11-13T06:52:40.404Z,51.60
2022-11-13T06:55:32.510Z,58.60
2022-11-13T06:58:25.575Z,60.55
2022-11-13T07:01:20.048Z,63.75
2022-11-13T07:04:14.553Z,58.75
2022-11-13T07:09:58.092Z,58.08
2022-11-13T07:12:54.562Z,62.55
2022-11-13T07:15:46.947Z,55.35
2022-11-13T07:18:39.295Z,54.13
2022-11-13T07:21:33.227Z,56.88
2022-11-13T07:24:25.751Z,56.85
2022-11-13T07:27:17.877Z,63.83
2022-11-13T07:30:11.066Z,52.60
2022-11-13T07:33:04.106Z,57.35
2022-11-13T07:35:56.835Z,47.88
2022-11-13T07:38:50.001Z,45.40
2022-11-13T07:41:42.004Z,40.47
2022-11-13T07:44:53.563Z,38.47
2022-11-13T07:47:45.746Z,41.15
2022-11-13T07:50:39.611Z,43.13
2022-11-13T07:53:19.697Z,53.25
2022-11-13T07:56:14.333Z,42.78
2022-11-13T07:59:08.514Z,42.70
2022-11-13T08:02:00.813Z,35.88
2022-11-13T08:04:53.128Z,30.83
2022-11-13T08:07:51.181Z,33.70
2022-11-13T08:10:43.813Z,33.95
2022-11-13T08:13:38.692Z,39.78
2022-11-13T08:16:31.333Z,34.88
2022-11-13T08:19:23.544Z,34.80
2022-11-13T08:22:16.042Z,39.33
2022-11-13T08:25:08.918Z,35.60
2022-11-13T08:28:01.749Z,33.40
2022-11-13T08:30:55.377Z,32.70
2022-11-13T08:33:47.281Z,32.33
2022-11-13T08:36:39.440Z,29.75
2022-11-13T08:39:31.698Z,32.70
2022-11-13T08:42:23.956Z,29.85
2022-11-13T08:45:16.216Z,27.33
2022-11-13T08:48:10.206Z,26.45
2022-11-13T08:51:02.292Z,27.67
2022-11-13T08:53:54.659Z,27.85
2022-11-13T08:56:53.014Z,26.67
2022-11-13T08:59:47.887Z,24.55
2022-11-13T09:02:40.006Z,17.63
2022-11-13T09:05:33.691Z,17.10
2022-11-13T09:08:26.046Z,17.10
2022-11-13T09:11:19.441Z,18.85
2022-11-13T09:14:11.554Z,23.67
2022-11-13T09:17:03.936Z,23.85
2022-11-13T09:19:58.401Z,26.13
2022-11-13T09:23:00.223Z,30.52
2022-11-13T09:25:52.330Z,27.17
2022-11-13T09:28:44.373Z,22.35
2022-11-13T09:31:36.536Z,26.10
2022-11-13T09:34:30.263Z,25.23
2022-11-13T09:37:22.449Z,26.77
2022-11-13T09:40:29.779Z,29.20
2022-11-13T09:43:32.538Z,20.88
2022-11-13T09:46:37.224Z,19.60
2022-11-13T09:49:34.292Z,20.48
2022-11-13T09:52:38.856Z,19.13
2022-11-13T09:55:39.832Z,24.50
2022-11-13T09:58:45.760Z,22.05
2022-11-13T10:01:49.724Z,20.00
2022-11-13T10:04:57.924Z,21.55
2022-11-13T10:07:58.260Z,20.10
2022-11-13T10:10:58.722Z,17.70
2022-11-13T10:13:54.340Z,22.10
2022-11-13T10:16:53.562Z,21.08
2022-11-13T10:19:54.654Z,19.83
2022-11-13T10:22:51.909Z,26.98
2022-11-13T10:25:45.832Z,19.90
2022-11-13T10:28:55.745Z,19.52
2022-11-13T10:31:49.247Z,21.52
2022-11-13T10:34:42.853Z,16.20
2022-11-13T10:37:50.024Z,26.48
2022-11-13T10:40:42.422Z,17.98
2022-11-13T10:43:35.731Z,22.67
2022-11-13T10:46:31.573Z,20.60
2022-11-13T10:49:29.180Z,25.00
2022-11-13T10:52:23.225Z,19.77
2022-11-13T10:55:23.160Z,20.73
2022-11-13T10:58:17.035Z,19.83
2022-11-13T11:01:16.137Z,16.52
2022-11-13T11:04:14.824Z,20.23
2022-11-13T11:07:20.648Z,17.08
2022-11-13T11:10:24.372Z,23.20
2022-11-13T11:13:24.126Z,19.90
2022-11-13T11:16:21.728Z,21.30
2022-11-13T11:19:17.554Z,20.58
2022-11-13T11:22:16.539Z,20.83
2022-11-13T11:25:15.346Z,19.88
2022-11-13T11:28:14.540Z,16.48
2022-11-13T11:31:28.528Z,21.73
2022-11-13T11:34:26.478Z,26.50
2022-11-13T11:37:22.597Z,21.67
2022-11-13T11:40:23.276Z,20.50
2022-11-13T11:43:23.083Z,23.80
2022-11-13T11:46:15.692Z,20.83
2022-11-13T11:49:07.523Z,20.25
2022-11-13T11:52:13.675Z,20.67
2022-11-13T11:55:32.652Z,26.00
2022-11-13T11:58:39.402Z,17.40
2022-11-13T12:01:56.198Z,19.88
2022-11-13T12:05:01.656Z,20.10
2022-11-13T12:08:08.349Z,18.48
2022-11-13T12:11:08.496Z,21.27
2022-11-13T12:14:10.938Z,18.17
2022-11-13T12:17:20.351Z,19.92
2022-11-13T12:20:24.013Z,21.85
2022-11-13T12:23:35.248Z,20.08
2022-11-13T12:26:32.052Z,19.17
2022-11-13T12:29:43.731Z,25.00
2022-11-13T12:32:55.897Z,22.25
2022-11-13T12:35:52.128Z,22.98
2022-11-13T12:38:50.149Z,20.33
2022-11-13T12:41:49.192Z,19.63
2022-11-13T12:44:50.827Z,17.30
2022-11-13T12:47:43.465Z,22.60
2022-11-13T12:50:36.347Z,23.83
2022-11-13T12:53:29.732Z,24.63
2022-11-13T12:56:34.109Z,25.63
2022-11-13T13:02:48.452Z,26.35
2022-11-13T13:06:05.576Z,26.88
2022-11-13T13:09:12.355Z,21.85
2022-11-13T13:12:13.854Z,25.42
2022-11-13T13:15:14.306Z,24.02
2022-11-13T13:18:11.951Z,25.10
2022-11-13T13:21:08.666Z,29.88
2022-11-13T13:24:09.869Z,27.55
2022-11-13T13:27:02.118Z,25.58
2022-11-13T13:29:55.635Z,23.70
2022-11-13T13:32:59.093Z,26.60
2022-11-13T13:36:02.722Z,28.30
2022-11-13T13:39:00.711Z,23.48
2022-11-13T13:42:08.772Z,46.92
2022-11-13T13:45:20.850Z,22.83
2022-11-13T13:48:21.872Z,23.98
2022-11-13T13:51:19.236Z,27.38
2022-11-13T13:54:22.043Z,21.40
2022-11-13T13:57:16.284Z,26.98
2022-11-13T14:03:06.295Z,23.83
2022-11-13T14:06:09.170Z,23.42
2022-11-13T14:09:09.722Z,23.30
2022-11-13T14:12:09.234Z,24.48
2022-11-13T14:15:05.008Z,23.05
2022-11-13T14:18:10.072Z,56.35
2022-11-13T14:21:04.910Z,28.17
2022-11-13T14:23:59.422Z,22.88
2022-11-13T14:29:48.940Z,21.30
2022-11-13T14:32:46.989Z,21.27
2022-11-13T14:35:42.131Z,39.13
2022-11-13T14:38:38.338Z,19.98
2022-11-13T14:41:36.547Z,23.17
2022-11-13T14:44:32.069Z,22.33
2022-11-13T14:47:28.699Z,35.95
2022-11-13T14:50:24.535Z,27.40
2022-11-13T14:53:28.271Z,22.08
2022-11-13T14:56:20.537Z,23.00
2022-11-13T14:59:19.545Z,24.90
2022-11-13T15:02:13.607Z,26.55
2022-11-13T15:05:06.257Z,23.80
2022-11-13T15:07:59.167Z,20.38
2022-11-13T15:10:53.519Z,24.23
2022-11-13T15:13:46.074Z,23.92
2022-11-13T15:16:38.492Z,29.42
2022-11-13T15:19:36.986Z,25.20
2022-11-13T15:22:29.298Z,28.75
2022-11-13T15:25:24.751Z,21.45
2022-11-13T15:28:18.354Z,21.63
2022-11-13T15:31:19.980Z,18.92
2022-11-13T15:34:12.897Z,22.17
2022-11-13T15:37:12.339Z,26.77
2022-11-13T15:40:05.102Z,19.08
2022-11-13T15:42:59.150Z,20.50
2022-11-13T15:45:52.533Z,18.25
2022-11-13T15:48:45.049Z,19.50
2022-11-13T15:51:41.021Z,18.58
2022-11-13T15:54:35.734Z,21.27
2022-11-13T15:57:31.895Z,21.20
2022-11-13T16:00:26.382Z,18.08
2022-11-13T16:06:14.262Z,20.95
2022-11-13T16:09:07.789Z,16.45
2022-11-13T16:12:01.653Z,18.83
2022-11-13T16:14:53.896Z,16.42
2022-11-13T16:17:49.108Z,14.95
2022-11-13T16:20:42.335Z,15.13
2022-11-13T16:23:34.554Z,14.55
2022-11-13T16:26:27.645Z,13.15
2022-11-13T16:29:21.950Z,13.93
2022-11-13T16:35:13.944Z,14.27
2022-11-13T16:38:13.302Z,16.15
2022-11-13T16:41:05.507Z,18.90
2022-11-13T16:43:57.562Z,15.27
2022-11-13T16:46:49.870Z,13.73
2022-11-13T16:49:41.562Z,13.23
2022-11-13T16:52:34.389Z,12.18
2022-11-13T16:55:28.583Z,13.48
2022-11-13T16:58:20.681Z,14.30
2022-11-13T17:01:16.872Z,11.60
2022-11-13T17:04:09.076Z,15.18
2022-11-13T17:07:01.485Z,12.48
2022-11-13T17:10:16.610Z,12.55
2022-11-13T17:13:06.911Z,13.20
2022-11-13T17:16:02.087Z,10.50
2022-11-13T17:18:54.544Z,12.30
2022-11-13T17:21:46.755Z,10.40
2022-11-13T17:24:38.746Z,13.13
2022-11-13T17:27:30.712Z,12.48
2022-11-13T17:30:24.742Z,17.48
2022-11-13T17:33:17.257Z,14.32
2022-11-13T17:36:10.742Z,14.35
2022-11-13T17:39:02.822Z,14.30
2022-11-13T17:41:54.872Z,13.95
2022-11-13T17:44:49.698Z,18.48
2022-11-13T17:47:43.425Z,17.30
2022-11-13T17:50:35.638Z,15.68
2022-11-13T17:53:28.495Z,17.05
2022-11-13T17:56:20.854Z,17.67
2022-11-13T17:59:13.051Z,16.08
2022-11-13T18:02:05.373Z,17.30
2022-11-13T18:05:01.475Z,18.85
2022-11-13T18:07:53.710Z,21.92
2022-11-13T18:10:45.764Z,20.90
2022-11-13T18:13:40.509Z,19.23
2022-11-13T18:16:35.107Z,18.15
2022-11-13T18:19:27.597Z,19.45
2022-11-13T18:22:21.208Z,24.17
2022-11-13T18:25:15.614Z,20.85
2022-11-13T18:31:01.542Z,23.00
2022-11-13T18:33:56.331Z,20.10
2022-11-13T18:36:48.312Z,22.92
2022-11-13T18:39:41.950Z,21.15
2022-11-13T18:42:33.946Z,23.25
2022-11-13T18:45:25.783Z,21.38
2022-11-13T18:48:20.483Z,21.45
2022-11-13T18:51:14.845Z,18.60
2022-11-13T18:54:10.054Z,24.00
2022-11-13T18:57:03.767Z,22.40
2022-11-13T18:59:56.036Z,22.25
2022-11-13T19:02:51.252Z,20.20
2022-11-13T19:05:47.322Z,25.65
2022-11-13T19:08:40.855Z,22.10
2022-11-13T19:11:34.023Z,27.33
2022-11-13T19:14:27.353Z,26.52
2022-11-13T19:17:21.172Z,21.63
2022-11-13T19:20:13.496Z,24.30
2022-11-13T19:23:09.151Z,21.42
2022-11-13T19:26:01.716Z,21.40
2022-11-13T19:28:54.878Z,25.38
2022-11-13T19:31:48.933Z,27.02
2022-11-13T19:34:46.300Z,22.38
2022-11-13T19:37:39.165Z,25.02
2022-11-13T19:40:31.227Z,28.48
2022-11-13T19:43:23.150Z,26.20
2022-11-13T19:46:17.390Z,24.90
2022-11-13T19:49:11.116Z,31.55
2022-11-13T19:52:05.778Z,26.00
2022-11-13T19:57:50.291Z,28.35
2022-11-13T20:00:42.661Z,34.00
2022-11-13T20:03:35.180Z,24.95
2022-11-13T20:06:29.790Z,31.02
2022-11-13T20:09:22.149Z,23.85
2022-11-13T20:12:14.402Z,24.77
2022-11-13T20:15:07.385Z,23.88
2022-11-13T20:17:59.367Z,25.17
2022-11-13T20:20:54.744Z,21.33
2022-11-13T20:23:50.541Z,39.25
2022-11-13T20:26:47.935Z,28.45
2022-11-13T20:29:40.323Z,27.63
2022-11-13T20:32:43.737Z,25.17
2022-11-13T20:35:35.619Z,25.15
2022-11-13T20:38:28.417Z,26.55
2022-11-13T20:41:24.284Z,24.35
2022-11-13T20:44:21.460Z,23.45
2022-11-13T20:47:13.356Z,24.05
2022-11-13T20:50:09.264Z,23.05
2022-11-13T20:53:01.567Z,24.00
2022-11-13T20:55:53.778Z,27.20
2022-11-13T20:58:53.510Z,21.73
2022-11-13T21:01:46.405Z,20.25
2022-11-13T21:04:45.316Z,19.17
2022-11-13T21:07:40.473Z,20.90
2022-11-13T21:10:35.606Z,23.40
2022-11-13T21:13:27.559Z,19.77
2022-11-13T21:16:25.901Z,21.67
2022-11-13T21:19:18.410Z,23.70
2022-11-13T21:22:10.620Z,27.23
2022-11-13T21:25:10.796Z,24.63
2022-11-13T21:28:03.072Z,26.27
2022-11-13T21:31:01.468Z,20.90
2022-11-13T21:34:01.433Z,23.45
2022-11-13T21:36:53.503Z,23.88
2022-11-13T21:39:45.358Z,26.60
2022-11-13T21:42:37.736Z,24.23
2022-11-13T21:45:29.899Z,23.48
2022-11-13T21:48:22.326Z,27.92
2022-11-13T21:51:16.447Z,24.83
2022-11-13T21:54:11.319Z,28.00
2022-11-13T21:57:03.459Z,27.08
2022-11-13T21:59:55.828Z,21.75
2022-11-13T22:02:47.691Z,24.20
2022-11-13T22:05:40.201Z,24.92
2022-11-13T22:08:33.922Z,23.77
2022-11-13T22:11:37.686Z,20.02
2022-11-13T22:14:29.851Z,13.45
2022-11-13T22:17:21.746Z,13.07
2022-11-13T22:20:14.098Z,12.43
2022-11-13T22:23:07.583Z,10.48
2022-11-13T22:26:05.563Z,10.45
2022-11-13T22:28:58.198Z,10.75
2022-11-13T22:31:50.119Z,7.03
2022-11-13T22:34:42.080Z,7.13
2022-11-13T22:37:34.395Z,9.70
2022-11-13T22:40:26.794Z,10.65
2022-11-13T22:43:20.483Z,11.07
2022-11-13T22:46:17.285Z,11.30
2022-11-13T22:49:13.613Z,9.07
2022-11-13T22:52:06.094Z,9.18
2022-11-13T22:54:58.252Z,8.32
2022-11-13T22:57:50.435Z,9.02
2022-11-13T23:00:58.202Z,8.57
2022-11-13T23:03:51.721Z,8.32
2022-11-13T23:06:46.540Z,8.57
2022-11-13T23:09:40.596Z,8.05
2022-11-13T23:12:32.982Z,6.57
2022-11-13T23:15:25.136Z,8.20
2022-11-13T23:18:19.069Z,8.38
2022-11-13T23:21:12.597Z,10.32
2022-11-13T23:24:04.986Z,7.60
2022-11-13T23:27:00.041Z,9.55
2022-11-13T23:29:54.149Z,8.82
2022-11-13T23:32:46.236Z,10.35
2022-11-13T23:35:39.661Z,7.65
2022-11-13T23:38:32.052Z,8.18
2022-11-13T23:41:24.466Z,9.55
2022-11-13T23:44:16.973Z,7.40
2022-11-13T23:47:09.164Z,11.50
2022-11-13T23:50:07.342Z,9.38
2022-11-13T23:53:00.698Z,10.45
2022-11-13T23:55:53.632Z,10.38
2022-11-13T23:58:45.807Z,7.93
